• Join FlightAware (Why Join?)
  • Login
  • US Flag 
09:49PM EDT


 

Airport Tracker/Info


-or-


 

Live Flight TrackerFlight Track Log ✈ DAL6067 ✈ 01-May-2013 ✈ KRIC - KJFK

Flight Track Log - Related Links

Times and Time Zones

All times are in EDT time to prevent confusion due to time zone crossing. See the DAL6067 flight status page for this flight to view local times or setup timezone preferences in your user account.

Time Position Orientation Groundspeed Altitude Reporting Facility
EDT Latitude Longitude Course Direction KTS MPH feet Rate Location/Type
06:14AM 37.5500 -77.3167 38° Northeast 170 196 2,100  Level Potomac TRACON
06:15AM 37.5817 -77.2769 45° Northeast 207 238 4,500 2,460 Climbing Washington Center
06:16AM 37.6283 -77.2203 44° Northeast 214 246 6,900 2,160 Climbing Washington Center
06:17AM 37.8052 -76.9948 38° Northeast  Level FlightAware Approximate
06:17AM 37.6792 -77.1608 43° Northeast 227 261 9,000  Level Washington Center
06:18AM 37.8834 -76.9167 38° Northeast  Level FlightAware Approximate
06:18AM 37.7322 -77.0936 45° Northeast 247 284 10,800  Level Washington Center
06:19AM 37.9615 -76.8385 38° Northeast  Level FlightAware Approximate
06:19AM 37.8019 -77.0189 40° Northeast 282 325 11,000  Level Washington Center
06:20AM 37.8758 -76.9414 40° Northeast 321 369 12,100 1,260 Climbing Washington Center
06:21AM 37.9539 -76.8611 39° Northeast 341 392 13,500 1,440 Climbing Washington Center
06:22AM 38.0256 -76.7675 46° Northeast 353 406 15,000 1,380 Climbing Washington Center
06:23AM 38.0953 -76.6708 47° Northeast 359 413 16,400 960 Climbing Washington Center
06:24AM 38.1631 -76.5742 48° Northeast 369 425 17,000 300 Climbing Washington Center
06:25AM 38.2325 -76.4744 48° Northeast 369 425 17,000  Level Washington Center
06:26AM 38.3061 -76.3828 44° Northeast 369 425 17,000  Level Washington Center
06:27AM 38.3878 -76.3094 35° Northeast 358 412 17,000  Level Washington Center
06:28AM 38.4739 -76.2308 36° Northeast 358 412 17,000  Level Washington Center
06:29AM 38.5597 -76.1492 37° Northeast 370 426 17,000  Level Washington Center
06:30AM 38.6456 -76.0728 35° Northeast 376 433 17,000  Level Washington Center
06:31AM 38.7208 -75.9828 43° Northeast 376 433 17,000  Level Washington Center
06:32AM 38.7775 -75.8714 57° Northeast 365 420 17,000  Level Washington Center
06:33AM 38.8339 -75.7650 56° Northeast 365 420 17,000  Level Washington Center
06:34AM 38.8883 -75.6636 55° Northeast 355 409 17,000  Level Washington Center
06:35AM 38.9425 -75.5597 56° Northeast 350 403 17,000  Level Washington Center
06:36AM 38.9986 -75.4553 55° Northeast 350 403 17,000  Level Washington Center
06:37AM 39.0569 -75.3483 55° Northeast 355 409 17,000  Level Washington Center
06:38AM 39.1128 -75.2411 56° Northeast 355 409 17,000  Level Washington Center
06:39AM 39.1708 -75.1283 56° Northeast 355 409 17,000  Level Washington Center
06:40AM 39.2267 -75.0208 56° Northeast 355 409 17,000  Level Washington Center
06:42AM 39.3175 -74.8525 55° Northeast 371 427 17,000  Level New York Center
06:43AM 39.3733 -74.7431 57° Northeast 371 427 17,000  Level New York Center
06:44AM 39.4314 -74.6306 56° Northeast 371 427 17,000  Level New York Center
06:45AM 39.4869 -74.5206 57° Northeast 371 427 17,000  Level New York Center
06:46AM 39.5533 -74.4003 54° Northeast 371 427 17,000  Level New York Center
06:47AM 39.6086 -74.2928 56° Northeast 366 421 17,000 -240 Level New York Center
06:48AM 39.6636 -74.1956 54° Northeast 366 421 16,600 -1,200 Descending New York Center
06:49AM 39.7436 -74.0997 43° Northeast 360 414 14,700 -1,800 Descending New York Center
06:50AM 39.8169 -74.0139 42° Northeast 352 405 13,000 -1,560 Descending New York Center
06:51AM 39.8958 -73.9500 32° Northeast 337 388 11,600 -1,020 Descending New York Center
06:52AM 39.9614 -73.9069 27° Northeast 304 350 11,000 -300 Descending New York Center
06:53AM 40.0278 -73.8475 34° Northeast 287 330 11,000 -540 Level New York Center
06:54AM 40.0842 -73.7633 49° Northeast 277 319 10,000 -1,620 Descending New York Center
06:55AM 40.1358 -73.6922 46° Northeast 272 313 7,900 -1,920 Descending New York Center
06:56AM 40.1875 -73.6292 43° Northeast 260 299 6,200 -2,040 Descending New York Center
06:57AM 40.2336 -73.6992 311° West 171 197 3,800 -1,620 Descending New York Center
06:58AM 40.2542 -73.7897 287° West 212 244 3,100 -780 Descending New York Center
06:59AM 40.2875 -73.8756 297° West 258 297 2,300 -540 Descending New York Center
07:00AM 40.3447 -73.9164 331° Northwest 241 277 2,100 -120 Descending New York Center
07:01AM 40.4000 -73.9167 360° North 190 219 2,100  Level New York TRACON
07:02AM 40.4333 -73.9167 360° North 180 207 2,100  Level New York TRACON
07:03AM 40.4833 -73.8833 27° Northeast 159 183 2,100  Level New York TRACON
07:03AM 40.5167 -73.8667 21° North 161 185 2,100 -120 Level New York TRACON
07:04AM 40.5500 -73.8333 37° Northeast 161 185 1,900 -240 Descending New York TRACON